Time;durP1;ratioP1;P1;durP2;ratioP2;P2;SDS_P1;SDS_P2;PMS_P1;PMS_P2;Temp;Humidity;BMP_temperature;BMP_pressure;BME280_temperature;BME280_humidity;BME280_pressure;Samples;Min_cycle;Max_cycle;Signal;HPM_P1;HPM_P2
2022/01/09 00:01:13;;;;;;;27.07;5.13;;;6.50;99.90;;;;;;5016680;28;20193;-80
2022/01/09 00:04:05;;;;;;;17.57;3.57;;;6.60;99.90;;;;;;5014354;28;20208;-81
2022/01/09 00:06:57;;;;;;;20.90;4.67;;;6.70;99.90;;;;;;5019775;28;20220;-81
2022/01/09 00:09:41;;;;;;;24.07;4.43;;;6.60;99.90;;;;;;5014245;28;20260;-80
2022/01/09 00:12:37;;;;;;;24.47;5.13;;;6.70;99.90;;;;;;5020106;28;20197;-80
2022/01/09 00:15:28;;;;;;;22.37;4.33;;;6.70;99.90;;;;;;5020005;28;20288;-81
2022/01/09 00:18:20;;;;;;;24.57;4.27;;;6.70;99.90;;;;;;5017614;28;20204;-80
2022/01/09 00:21:07;;;;;;;23.63;5.20;;;6.70;99.90;;;;;;5018089;28;20230;-81
2022/01/09 00:24:15;;;;;;;26.60;4.77;;;6.70;99.90;;;;;;5017805;28;20208;-81
2022/01/09 00:27:33;;;;;;;34.13;5.53;;;6.70;99.90;;;;;;5001052;28;20241;-81
2022/01/09 00:30:13;;;;;;;30.23;5.10;;;6.80;99.90;;;;;;5017270;28;20212;-81
2022/01/09 00:32:49;;;;;;;33.63;6.10;;;6.80;99.90;;;;;;5017241;28;20275;-80
2022/01/09 00:35:28;;;;;;;23.70;5.33;;;6.80;99.90;;;;;;5014210;28;20438;-80
2022/01/09 00:38:04;;;;;;;25.70;4.73;;;7.00;99.90;;;;;;5018008;28;20172;-81
2022/01/09 00:41:10;;;;;;;34.50;5.30;;;7.00;99.90;;;;;;5013496;28;20211;-82
2022/01/09 00:43:53;;;;;;;18.37;3.97;;;7.10;99.90;;;;;;5017835;28;20288;-82
2022/01/09 00:46:29;;;;;;;20.83;3.70;;;7.10;99.90;;;;;;4998656;28;20295;-81
2022/01/09 00:48:57;;;;;;;27.73;4.20;;;7.10;99.90;;;;;;5009998;28;20756;-81
2022/01/09 00:51:33;;;;;;;20.73;3.70;;;7.30;99.90;;;;;;5006420;28;20228;-81
2022/01/09 00:54:03;;;;;;;23.50;4.10;;;7.10;99.90;;;;;;5004320;28;20204;-80
2022/01/09 00:56:31;;;;;;;26.17;4.57;;;7.00;99.90;;;;;;4988022;28;20224;-81
2022/01/09 00:59:02;;;;;;;19.47;4.43;;;7.00;99.90;;;;;;5003709;28;20205;-80
2022/01/09 01:01:29;;;;;;;20.60;3.80;;;7.00;99.90;;;;;;5002322;28;20205;-80
2022/01/09 01:03:58;;;;;;;22.17;3.57;;;6.90;99.90;;;;;;5001887;28;20612;-80
2022/01/09 01:06:26;;;;;;;15.90;3.43;;;6.80;99.90;;;;;;4999637;28;20276;-80
2022/01/09 01:08:55;;;;;;;23.37;4.90;;;6.70;99.90;;;;;;5002215;28;20240;-80
2022/01/09 01:11:22;;;;;;;20.07;3.63;;;6.70;99.90;;;;;;5001871;28;20283;-80
2022/01/09 01:13:54;;;;;;;26.70;4.17;;;6.70;99.90;;;;;;5002666;28;20226;-81
2022/01/09 01:16:26;;;;;;;21.00;3.97;;;6.70;99.90;;;;;;5004018;28;20283;-79
2022/01/09 01:18:55;;;;;;;26.20;4.37;;;6.70;99.90;;;;;;5002747;28;20219;-81
2022/01/09 01:21:25;;;;;;;22.67;3.40;;;6.70;99.90;;;;;;5003743;28;20200;-80
2022/01/09 01:23:56;;;;;;;17.13;3.60;;;6.80;99.90;;;;;;4985681;28;20210;-81
2022/01/09 01:26:22;;;;;;;17.07;3.73;;;6.80;99.90;;;;;;5002453;28;20234;-81
2022/01/09 01:28:53;;;;;;;27.23;4.57;;;6.80;99.90;;;;;;5001911;28;20228;-81
2022/01/09 01:31:32;;;;;;;20.73;4.07;;;6.90;99.90;;;;;;5019828;28;20258;-80
2022/01/09 01:34:01;;;;;;;26.00;5.77;;;6.80;99.90;;;;;;5020858;28;20275;-81
2022/01/09 01:39:15;;;;;;;20.87;5.77;;;7.00;99.90;;;;;;5021257;28;20204;-80
2022/01/09 01:42:07;;;;;;;20.10;3.93;;;6.90;99.90;;;;;;5026225;28;20279;-81
2022/01/09 01:44:51;;;;;;;14.87;3.70;;;6.90;99.90;;;;;;5032843;28;20224;-83
2022/01/09 01:47:39;;;;;;;20.67;3.97;;;6.90;99.90;;;;;;5032719;28;20215;-82
2022/01/09 01:50:19;;;;;;;19.40;4.85;;;6.90;99.90;;;;;;5032366;28;20437;-81
2022/01/09 01:53:17;;;;;;;21.27;3.63;;;6.90;99.90;;;;;;5031903;28;20199;-82
2022/01/09 01:55:53;;;;;;;15.83;3.43;;;6.80;99.90;;;;;;5032309;28;20211;-81
2022/01/09 01:58:22;;;;;;;24.83;4.73;;;6.80;99.90;;;;;;5033931;28;20223;-81
2022/01/09 02:01:13;;;;;;;17.10;3.57;;;6.70;99.90;;;;;;5032770;28;20204;-81
2022/01/09 02:03:48;;;;;;;25.03;3.73;;;6.80;99.90;;;;;;5032051;28;20263;-81
2022/01/09 02:06:18;;;;;;;13.57;2.80;;;6.80;99.90;;;;;;5033758;28;20199;-80
2022/01/09 02:08:52;;;;;;;13.83;3.00;;;6.80;99.90;;;;;;5034842;28;20234;-81
2022/01/09 02:11:39;;;;;;;14.07;3.40;;;6.70;99.90;;;;;;5027717;28;20261;-81
2022/01/09 02:14:19;;;;;;;16.20;2.83;;;6.80;99.90;;;;;;5014831;28;20211;-82
2022/01/09 02:16:51;;;;;;;21.50;3.70;;;6.70;99.90;;;;;;5004648;28;20623;-81
2022/01/09 02:19:30;;;;;;;16.47;3.10;;;6.70;99.90;;;;;;5013396;28;20271;-81
2022/01/09 02:22:23;;;;;;;13.43;3.00;;;6.60;99.90;;;;;;5032888;28;20194;-83
2022/01/09 02:25:18;;;;;;;14.40;3.00;;;6.80;99.90;;;;;;5033269;28;20235;-82
2022/01/09 02:28:09;;;;;;;18.23;4.35;;;6.70;99.90;;;;;;5032849;28;20417;-82
2022/01/09 02:30:49;;;;;;;16.13;3.13;;;6.80;99.90;;;;;;5031810;28;20276;-83
2022/01/09 02:33:23;;;;;;;13.53;3.10;;;6.70;99.90;;;;;;5032989;28;20251;-81
2022/01/09 02:36:29;;;;;;;14.67;2.90;;;6.70;99.90;;;;;;5031637;28;20204;-82
2022/01/09 02:39:09;;;;;;;14.27;2.83;;;6.70;99.90;;;;;;5030385;28;20207;-80
2022/01/09 02:41:50;;;;;;;18.83;3.10;;;6.60;99.90;;;;;;5034061;28;20215;-81
2022/01/09 02:44:25;;;;;;;13.87;3.93;;;6.60;99.90;;;;;;5029478;28;20215;-81
2022/01/09 02:47:02;;;;;;;14.60;3.37;;;6.60;99.90;;;;;;5021056;28;20207;-81
2022/01/09 02:49:43;;;;;;;16.40;4.30;;;6.50;99.90;;;;;;5019616;28;20239;-81
2022/01/09 02:52:27;;;;;;;15.50;3.00;;;6.60;99.90;;;;;;5020671;28;20238;-81
2022/01/09 02:55:18;;;;;;;15.47;3.20;;;6.60;99.90;;;;;;5020170;28;20219;-81
2022/01/09 02:57:48;;;;;;;12.37;2.50;;;6.50;99.90;;;;;;5018035;28;20606;-81
2022/01/09 03:00:20;;;;;;;13.73;3.20;;;6.50;99.90;;;;;;5014570;28;20258;-80
2022/01/09 03:02:51;;;;;;;18.38;4.13;;;6.50;99.90;;;;;;5018761;28;20432;-81
2022/01/09 03:05:20;;;;;;;15.50;3.03;;;6.50;99.90;;;;;;5019275;28;20234;-80
2022/01/09 03:07:48;;;;;;;12.20;2.87;;;6.50;99.90;;;;;;5017359;28;20725;-80
2022/01/09 03:10:24;;;;;;;14.90;2.87;;;6.50;99.90;;;;;;4999726;28;20254;-80
2022/01/09 03:12:55;;;;;;;14.90;2.87;;;6.50;99.90;;;;;;5017579;28;20279;-80
2022/01/09 03:15:23;;;;;;;11.63;3.07;;;6.50;99.90;;;;;;5016948;28;20208;-80
2022/01/09 03:17:52;;;;;;;17.27;3.10;;;6.50;99.90;;;;;;5017457;28;20667;-80
2022/01/09 03:20:25;;;;;;;13.67;2.50;;;6.50;99.90;;;;;;5021991;28;20196;-80
2022/01/09 03:22:54;;;;;;;17.77;2.93;;;6.50;99.90;;;;;;5030117;28;20204;-80
2022/01/09 03:25:25;;;;;;;21.23;2.70;;;6.50;99.90;;;;;;5027647;28;20204;-81
2022/01/09 03:27:53;;;;;;;10.10;2.53;;;6.50;99.90;;;;;;5028675;28;20228;-80
2022/01/09 03:30:24;;;;;;;8.10;2.53;;;6.40;99.90;;;;;;5029974;28;20234;-81
2022/01/09 03:33:34;;;;;;;11.43;2.40;;;6.40;99.90;;;;;;5034533;28;20192;-82
2022/01/09 03:39:27;;;;;;;14.57;2.63;;;6.40;99.90;;;;;;5037155;28;20201;-81
2022/01/09 03:42:05;;;;;;;14.65;3.42;;;6.40;99.90;;;;;;5036591;28;20425;-81
2022/01/09 03:44:41;;;;;;;16.57;2.97;;;6.40;99.90;;;;;;5036420;28;20208;-81
2022/01/09 03:47:20;;;;;;;11.40;2.97;;;6.40;99.90;;;;;;5037330;28;20242;-80
2022/01/09 03:49:54;;;;;;;16.23;2.67;;;6.40;99.90;;;;;;5036096;28;20241;-83
2022/01/09 03:52:30;;;;;;;11.50;2.57;;;6.40;99.90;;;;;;5037406;28;20204;-81
2022/01/09 03:55:46;;;;;;;10.80;3.03;;;6.40;99.90;;;;;;5036523;28;20195;-82
2022/01/09 03:58:14;;;;;;;18.77;2.60;;;6.30;99.90;;;;;;5036498;28;20267;-81
2022/01/09 04:00:42;;;;;;;18.13;2.90;;;6.20;99.90;;;;;;5033450;28;20217;-81
2022/01/09 04:03:13;;;;;;;7.87;2.50;;;6.20;99.90;;;;;;5034092;28;20666;-80
2022/01/09 04:06:01;;;;;;;11.80;2.67;;;6.20;99.90;;;;;;5038713;28;20214;-81
2022/01/09 04:08:38;;;;;;;11.47;2.90;;;6.00;99.90;;;;;;5037588;28;20200;-79
2022/01/09 04:11:07;;;;;;;14.27;2.60;;;5.90;99.90;;;;;;5039771;28;20210;-81
2022/01/09 04:13:54;;;;;;;13.60;2.53;;;5.90;99.90;;;;;;5038118;28;20279;-80
2022/01/09 04:16:44;;;;;;;9.03;2.13;;;5.90;99.90;;;;;;5038084;28;20176;-81
2022/01/09 04:19:41;;;;;;;14.73;2.47;;;5.90;99.90;;;;;;5038526;28;20203;-81
2022/01/09 04:22:25;;;;;;;16.57;3.57;;;5.90;99.90;;;;;;5040263;28;20184;-81
2022/01/09 04:24:56;;;;;;;16.30;3.20;;;5.80;99.90;;;;;;5040245;28;20219;-81
2022/01/09 04:27:47;;;;;;;19.23;3.03;;;5.70;99.90;;;;;;5037368;28;20226;-81
2022/01/09 04:30:34;;;;;;;15.17;2.63;;;5.70;99.90;;;;;;5038452;28;20247;-82
2022/01/09 04:33:01;;;;;;;19.17;3.03;;;5.70;99.90;;;;;;5039697;28;20207;-81
2022/01/09 04:35:34;;;;;;;14.80;2.77;;;5.70;99.90;;;;;;5035129;28;20192;-80
2022/01/09 04:41:26;;;;;;;13.77;2.50;;;5.60;99.90;;;;;;5040114;28;20187;-82
2022/01/09 04:43:55;;;;;;;15.53;2.50;;;5.50;99.90;;;;;;5039708;28;20207;-82
2022/01/09 04:49:36;;;;;;;13.63;2.50;;;5.50;99.90;;;;;;5037865;28;20487;-82
2022/01/09 04:52:14;;;;;;;14.00;2.50;;;5.40;99.90;;;;;;5022040;28;20236;-80
2022/01/09 04:54:46;;;;;;;8.73;2.00;;;5.50;99.90;;;;;;5038065;28;20434;-81
2022/01/09 04:57:18;;;;;;;13.57;3.05;;;5.50;99.90;;;;;;5038451;28;20437;-81
2022/01/09 04:59:48;;;;;;;13.97;2.60;;;5.70;99.90;;;;;;5028952;28;20207;-79
2022/01/09 05:02:22;;;;;;;9.40;2.37;;;5.60;99.90;;;;;;5023803;28;20192;-80
2022/01/09 05:04:57;;;;;;;13.57;2.80;;;5.60;99.90;;;;;;5020049;28;20207;-79
2022/01/09 05:07:24;;;;;;;13.67;2.60;;;5.60;99.90;;;;;;5018575;28;20211;-78
2022/01/09 05:09:56;;;;;;;14.73;2.97;;;5.60;99.90;;;;;;5018687;28;20238;-80
2022/01/09 05:12:25;;;;;;;14.53;2.10;;;5.60;99.90;;;;;;5018770;28;20236;-79
2022/01/09 05:14:55;;;;;;;13.57;2.73;;;5.50;99.90;;;;;;5019606;28;20207;-79
2022/01/09 05:17:26;;;;;;;12.70;2.00;;;5.50;99.90;;;;;;4982171;28;20204;-79
2022/01/09 05:19:58;;;;;;;12.83;2.57;;;5.40;99.90;;;;;;4999476;28;20200;-79
2022/01/09 05:22:30;;;;;;;10.80;2.93;;;5.40;99.90;;;;;;4999113;28;20212;-80
2022/01/09 05:25:06;;;;;;;14.37;2.47;;;5.40;99.90;;;;;;4999353;28;20250;-79
2022/01/09 05:27:37;;;;;;;14.77;3.13;;;5.40;99.90;;;;;;4981800;28;20219;-80
2022/01/09 05:30:09;;;;;;;13.97;2.90;;;5.30;99.90;;;;;;4999654;28;20664;-79
2022/01/09 05:32:47;;;;;;;11.63;2.93;;;5.30;99.90;;;;;;5000354;28;20212;-80
2022/01/09 05:35:28;;;;;;;17.30;3.65;;;5.20;99.90;;;;;;4998758;28;20434;-79
2022/01/09 05:38:00;;;;;;;11.77;2.43;;;5.30;99.90;;;;;;5000059;28;20189;-79
2022/01/09 05:40:29;;;;;;;18.70;2.50;;;5.20;99.90;;;;;;5000010;28;20201;-79
2022/01/09 05:43:13;;;;;;;11.87;3.13;;;5.20;99.90;;;;;;4999886;28;20215;-80
2022/01/09 05:45:56;;;;;;;13.47;2.30;;;5.20;99.90;;;;;;5000721;28;20214;-80
2022/01/09 05:48:28;;;;;;;14.40;2.90;;;5.20;99.90;;;;;;4999616;28;20208;-80
2022/01/09 05:50:56;;;;;;;16.93;2.70;;;5.10;99.90;;;;;;4997764;28;20227;-81
2022/01/09 05:53:24;;;;;;;14.20;4.23;;;5.10;99.90;;;;;;4996709;28;20208;-79
2022/01/09 05:55:55;;;;;;;11.37;2.50;;;5.00;99.90;;;;;;4997218;28;20205;-80
2022/01/09 06:01:15;;;;;;;16.47;2.93;;;4.90;99.90;;;;;;5001104;28;20212;-80
2022/01/09 06:03:56;;;;;;;19.37;2.87;;;4.80;99.90;;;;;;4998807;28;20224;-80
2022/01/09 06:06:36;;;;;;;9.43;2.53;;;4.80;99.90;;;;;;4997731;28;20542;-79
2022/01/09 06:09:08;;;;;;;14.20;3.13;;;4.80;99.90;;;;;;4994812;28;20468;-80
2022/01/09 06:11:35;;;;;;;14.17;2.97;;;4.90;99.90;;;;;;4998095;28;20438;-79
2022/01/09 06:14:05;;;;;;;15.03;2.23;;;4.90;99.90;;;;;;4999463;28;20443;-79
2022/01/09 06:16:33;;;;;;;14.17;2.70;;;4.90;99.90;;;;;;5000123;28;20497;-80
2022/01/09 06:19:14;;;;;;;16.13;2.13;;;5.00;99.90;;;;;;5000593;28;20454;-79
2022/01/09 06:22:04;;;;;;;14.50;3.17;;;5.00;99.90;;;;;;5002442;28;20464;-80
2022/01/09 06:24:36;;;;;;;13.57;2.57;;;5.00;99.90;;;;;;5002048;28;20462;-80
2022/01/09 06:27:14;;;;;;;17.37;2.53;;;4.90;99.90;;;;;;5000151;28;20216;-80
2022/01/09 06:29:55;;;;;;;11.83;3.20;;;4.90;99.90;;;;;;5000337;28;20499;-80
2022/01/09 06:32:23;;;;;;;12.53;2.60;;;5.00;99.90;;;;;;4984733;28;20208;-80
2022/01/09 06:34:53;;;;;;;11.77;3.13;;;5.10;99.90;;;;;;4983544;28;20201;-80
2022/01/09 06:37:22;;;;;;;12.40;2.47;;;4.90;99.90;;;;;;4999603;28;20205;-80
2022/01/09 06:40:13;;;;;;;12.77;2.80;;;4.90;99.90;;;;;;5000347;28;20207;-80
2022/01/09 06:42:42;;;;;;;9.00;2.40;;;4.90;99.90;;;;;;4999215;28;20608;-80
2022/01/09 06:45:13;;;;;;;13.23;2.73;;;4.90;99.90;;;;;;4999436;28;20438;-80
2022/01/09 06:47:57;;;;;;;8.80;1.97;;;4.90;99.90;;;;;;4998933;28;20458;-80
2022/01/09 06:50:44;;;;;;;14.70;2.70;;;4.90;99.90;;;;;;5000190;28;20496;-80
2022/01/09 06:56:10;;;;;;;11.63;2.27;;;4.90;99.90;;;;;;4985459;28;20953;-79
2022/01/09 06:58:38;;;;;;;7.40;2.43;;;4.90;99.90;;;;;;5000343;28;20520;-80
2022/01/09 07:01:07;;;;;;;10.93;2.50;;;4.90;99.90;;;;;;4999969;28;20509;-80
2022/01/09 07:03:51;;;;;;;12.23;3.13;;;4.90;99.90;;;;;;4999304;28;20208;-80
2022/01/09 07:06:26;;;;;;;13.27;2.70;;;4.90;99.90;;;;;;4998570;28;20844;-80
2022/01/09 07:09:03;;;;;;;19.43;3.77;;;5.00;99.90;;;;;;4999371;28;20232;-80
2022/01/09 07:11:39;;;;;;;9.30;2.50;;;5.00;99.90;;;;;;5001599;28;20493;-80
2022/01/09 07:14:27;;;;;;;16.73;3.27;;;5.10;99.90;;;;;;5000444;28;20198;-80
2022/01/09 07:16:58;;;;;;;14.30;2.70;;;5.00;99.90;;;;;;4999165;28;20480;-81
2022/01/09 07:19:37;;;;;;;11.67;2.60;;;4.90;99.90;;;;;;5028969;28;20449;-81
2022/01/09 07:22:18;;;;;;;16.40;2.77;;;4.90;99.90;;;;;;5028775;28;20445;-81
2022/01/09 07:24:49;;;;;;;15.17;3.10;;;4.90;99.90;;;;;;5028090;28;20472;-81
2022/01/09 07:27:21;;;;;;;13.75;3.65;;;4.90;99.90;;;;;;5030168;28;20508;-81
2022/01/09 07:29:51;;;;;;;12.17;3.17;;;4.80;99.90;;;;;;5031499;28;20223;-81
2022/01/09 07:32:20;;;;;;;15.37;3.13;;;4.90;99.90;;;;;;5032071;28;20212;-81
2022/01/09 07:34:57;;;;;;;14.53;2.93;;;4.90;99.90;;;;;;5031727;28;20428;-81
2022/01/09 07:37:30;;;;;;;13.90;2.70;;;4.80;99.90;;;;;;5030283;28;20208;-81
2022/01/09 07:42:48;;;;;;;14.63;2.87;;;4.80;99.90;;;;;;5034746;28;20474;-80
2022/01/09 07:45:24;;;;;;;17.67;2.73;;;4.90;99.90;;;;;;5018792;28;20204;-81
2022/01/09 07:47:52;;;;;;;18.27;2.37;;;4.90;99.90;;;;;;5035581;28;20460;-82
2022/01/09 07:50:23;;;;;;;12.63;2.50;;;4.80;99.90;;;;;;5035097;28;20548;-81
2022/01/09 07:53:03;;;;;;;16.03;3.53;;;4.80;99.90;;;;;;5020138;28;20444;-80
2022/01/09 07:55:38;;;;;;;12.07;2.40;;;4.80;99.90;;;;;;5016052;28;20199;-81
2022/01/09 07:58:12;;;;;;;15.40;3.07;;;4.70;99.90;;;;;;5016017;28;20449;-81
2022/01/09 08:00:43;;;;;;;20.20;2.93;;;4.70;99.90;;;;;;5013970;28;20466;-82
2022/01/09 08:03:13;;;;;;;14.83;3.40;;;4.80;99.90;;;;;;5015111;28;20465;-82
2022/01/09 08:06:05;;;;;;;17.15;3.80;;;4.80;99.90;;;;;;5014989;28;20461;-82
2022/01/09 08:08:43;;;;;;;17.97;2.80;;;4.90;99.90;;;;;;5017334;28;20208;-81
2022/01/09 08:11:18;;;;;;;21.53;3.77;;;4.90;99.90;;;;;;5017098;28;20227;-80
2022/01/09 08:13:49;;;;;;;24.47;3.70;;;4.90;99.90;;;;;;4999862;28;20460;-80
2022/01/09 08:16:29;;;;;;;12.37;2.60;;;4.90;99.90;;;;;;5015167;28;20446;-80
2022/01/09 08:19:08;;;;;;;11.30;2.27;;;4.90;99.90;;;;;;5015591;28;20200;-81
2022/01/09 08:21:40;;;;;;;13.23;3.23;;;4.90;99.90;;;;;;5018447;28;20215;-79
2022/01/09 08:24:54;;;;;;;15.23;2.47;;;4.90;99.90;;;;;;5019528;28;20471;-80
2022/01/09 08:27:26;;;;;;;9.17;2.93;;;4.90;99.90;;;;;;5019146;28;20462;-79
2022/01/09 08:30:22;;;;;;;12.60;3.43;;;5.00;99.90;;;;;;5018725;28;20509;-80
2022/01/09 08:33:15;;;;;;;14.40;3.20;;;5.00;99.90;;;;;;5016820;28;20443;-80
2022/01/09 08:36:02;;;;;;;12.43;2.70;;;5.00;99.90;;;;;;5018146;28;20445;-81
2022/01/09 08:39:08;;;;;;;11.37;3.00;;;5.00;99.90;;;;;;5020232;28;20215;-84
2022/01/09 08:41:48;;;;;;;21.63;3.77;;;5.00;99.90;;;;;;5017353;28;20180;-80
2022/01/09 08:44:24;;;;;;;16.33;3.80;;;4.90;99.90;;;;;;5014294;28;20449;-81
2022/01/09 08:47:07;;;;;;;15.97;2.93;;;5.10;99.90;;;;;;5018019;28;20208;-80
2022/01/09 08:49:37;;;;;;;18.70;3.23;;;5.00;99.90;;;;;;5026020;28;20203;-79
2022/01/09 08:52:06;;;;;;;14.73;3.30;;;5.00;99.90;;;;;;5037545;28;20207;-81
2022/01/09 08:54:34;;;;;;;21.70;3.10;;;4.90;99.90;;;;;;5037985;28;20649;-81
2022/01/09 08:57:05;;;;;;;21.47;3.13;;;4.90;99.90;;;;;;5032561;28;20199;-80
2022/01/09 08:59:33;;;;;;;20.07;3.60;;;4.90;99.90;;;;;;5023666;28;20567;-79
2022/01/09 09:02:07;;;;;;;17.13;3.47;;;4.90;99.90;;;;;;5023911;28;20212;-79
2022/01/09 09:04:37;;;;;;;16.97;3.23;;;4.90;99.90;;;;;;5026428;28;20214;-79
2022/01/09 09:07:04;;;;;;;15.73;3.30;;;4.90;99.90;;;;;;5021099;28;20192;-80
2022/01/09 09:09:31;;;;;;;15.73;3.60;;;4.90;99.90;;;;;;5019829;28;20853;-79
2022/01/09 09:11:59;;;;;;;14.80;3.27;;;4.90;99.90;;;;;;5019438;28;20215;-80
2022/01/09 09:14:30;;;;;;;13.63;3.50;;;5.00;99.90;;;;;;5006562;28;20434;-79
2022/01/09 09:17:06;;;;;;;19.23;3.83;;;5.10;99.90;;;;;;5020015;28;20192;-79
2022/01/09 09:19:34;;;;;;;19.30;3.70;;;5.10;99.90;;;;;;5019238;28;20199;-80
2022/01/09 09:22:06;;;;;;;20.63;4.70;;;5.20;99.90;;;;;;5023613;28;20433;-80
2022/01/09 09:25:14;;;;;;;14.33;3.20;;;5.20;99.90;;;;;;5019353;28;20495;-82
2022/01/09 09:27:54;;;;;;;11.40;2.87;;;5.20;99.90;;;;;;5034239;28;20219;-80
2022/01/09 09:30:31;;;;;;;14.13;3.13;;;5.30;99.90;;;;;;5035199;28;20572;-81
2022/01/09 09:33:19;;;;;;;11.70;2.70;;;5.30;99.90;;;;;;5034861;28;20175;-81
2022/01/09 09:35:57;;;;;;;22.97;4.00;;;5.20;99.90;;;;;;5032911;28;20211;-80
2022/01/09 09:38:45;;;;;;;12.73;3.07;;;5.30;99.90;;;;;;5034932;28;20195;-80
2022/01/09 09:41:20;;;;;;;15.27;3.63;;;5.30;99.90;;;;;;5036748;28;20196;-81
2022/01/09 09:44:45;;;;;;;14.30;3.10;;;5.30;99.90;;;;;;5039812;28;20218;-82
2022/01/09 09:47:22;;;;;;;14.25;3.83;;;5.30;99.90;;;;;;5038485;28;20412;-82
2022/01/09 09:53:12;;;;;;;12.47;3.07;;;5.40;99.90;;;;;;5038578;28;20172;-81
2022/01/09 09:59:04;;;;;;;14.00;2.93;;;5.30;99.90;;;;;;5039675;28;20182;-83
2022/01/09 10:05:06;;;;;;;12.20;3.33;;;5.50;99.90;;;;;;5039534;28;20199;-80
2022/01/09 10:08:19;;;;;;;13.77;2.63;;;5.60;99.90;;;;;;5038583;28;20243;-82
2022/01/09 10:11:07;;;;;;;13.40;3.23;;;5.60;99.90;;;;;;5038818;28;20227;-82
2022/01/09 10:13:45;;;;;;;14.13;3.20;;;5.80;99.90;;;;;;5020270;28;20168;-81
2022/01/09 10:16:13;;;;;;;8.23;2.90;;;5.90;99.90;;;;;;5035923;28;20207;-81
2022/01/09 10:18:59;;;;;;;13.53;3.03;;;5.90;99.90;;;;;;5035284;28;20184;-81
2022/01/09 10:21:30;;;;;;;18.10;3.23;;;6.00;99.90;;;;;;5036137;28;20207;-81
2022/01/09 10:24:19;;;;;;;11.97;3.33;;;6.00;99.90;;;;;;5037710;28;20196;-81
2022/01/09 10:27:00;;;;;;;15.80;2.93;;;6.00;99.90;;;;;;5038275;28;20199;-82
2022/01/09 10:29:36;;;;;;;11.50;3.03;;;6.10;99.90;;;;;;5037862;28;20208;-82
2022/01/09 10:32:20;;;;;;;12.03;2.67;;;6.00;99.90;;;;;;5038267;28;20223;-82
2022/01/09 10:35:12;;;;;;;17.97;3.47;;;6.00;99.90;;;;;;5002272;28;20228;-82
2022/01/09 10:38:22;;;;;;;12.93;3.40;;;6.10;99.90;;;;;;5003099;28;20189;-81
2022/01/09 10:41:41;;;;;;;9.53;3.00;;;6.10;99.90;;;;;;5018003;28;20235;-81
2022/01/09 10:44:38;;;;;;;15.70;3.13;;;6.00;99.90;;;;;;5018870;28;20189;-82
2022/01/09 10:47:38;;;;;;;11.77;2.80;;;6.10;99.90;;;;;;5018289;28;20287;-82
2022/01/09 10:50:37;;;;;;;11.17;2.60;;;6.20;99.90;;;;;;5012929;28;20214;-81
2022/01/09 10:53:30;;;;;;;14.10;3.57;;;6.20;99.90;;;;;;5020956;28;20214;-80
2022/01/09 10:56:25;;;;;;;15.20;3.07;;;6.20;99.90;;;;;;5021525;28;20252;-82
2022/01/09 10:59:34;;;;;;;15.87;4.27;;;6.00;99.90;;;;;;5017684;28;20196;-82
2022/01/09 11:02:33;;;;;;;13.60;3.13;;;6.20;99.90;;;;;;5037967;28;20185;-81
2022/01/09 11:05:17;;;;;;;19.57;3.50;;;6.30;99.90;;;;;;5036643;28;20198;-82
2022/01/09 11:08:29;;;;;;;14.77;3.10;;;6.30;99.90;;;;;;5037702;28;20188;-81
2022/01/09 11:11:35;;;;;;;16.03;3.67;;;6.30;99.90;;;;;;5038192;28;20251;-82
2022/01/09 11:14:36;;;;;;;14.37;3.07;;;6.40;99.90;;;;;;5038523;28;20196;-82
2022/01/09 11:17:16;;;;;;;15.73;3.97;;;6.30;99.90;;;;;;5040676;28;20433;-82
2022/01/09 11:19:55;;;;;;;11.13;3.00;;;6.50;99.90;;;;;;5040753;28;20207;-82
2022/01/09 11:25:43;;;;;;;13.23;3.17;;;6.50;99.90;;;;;;5040919;28;20207;-81
2022/01/09 11:28:42;;;;;;;10.17;3.23;;;6.50;99.90;;;;;;5040793;28;20211;-82
2022/01/09 11:31:20;;;;;;;14.67;3.30;;;6.50;99.90;;;;;;5007355;28;20231;-82
2022/01/09 11:34:19;;;;;;;13.47;2.80;;;6.60;99.90;;;;;;5038501;28;20211;-81
2022/01/09 11:43:57;;;;;;;14.37;3.23;;;6.60;99.90;;;;;;5040160;28;20291;-81
2022/01/09 11:50:17;;;;;;;13.60;3.67;;;6.70;99.90;;;;;;5040800;28;20219;-82
2022/01/09 11:53:08;;;;;;;14.70;3.80;;;6.70;99.90;;;;;;5021136;28;20448;-81
2022/01/09 11:56:03;;;;;;;11.40;3.80;;;6.90;99.90;;;;;;5036828;28;20210;-81
2022/01/09 11:59:10;;;;;;;12.53;3.03;;;7.00;99.90;;;;;;5036295;28;20591;-82
2022/01/09 12:01:38;;;;;;;13.33;3.50;;;7.00;99.90;;;;;;5027646;28;20694;-80
2022/01/09 12:04:47;;;;;;;13.67;2.83;;;7.10;99.90;;;;;;5028481;28;20210;-79
2022/01/09 12:08:04;;;;;;;11.17;2.13;;;7.10;99.90;;;;;;5029555;28;20692;-80
2022/01/09 12:10:35;;;;;;;8.73;2.73;;;7.20;99.90;;;;;;5028585;28;20204;-79
2022/01/09 12:13:27;;;;;;;11.07;2.83;;;7.20;99.90;;;;;;5030481;28;20235;-79
2022/01/09 12:16:00;;;;;;;9.13;2.57;;;7.20;99.90;;;;;;5028098;28;20204;-82
2022/01/09 12:18:46;;;;;;;12.87;3.43;;;7.30;99.90;;;;;;5007327;28;20204;-80
2022/01/09 12:21:51;;;;;;;12.57;3.13;;;7.50;99.90;;;;;;5028132;28;20581;-80
2022/01/09 12:24:42;;;;;;;12.00;3.03;;;7.40;99.90;;;;;;5020567;28;20199;-79
2022/01/09 12:27:54;;;;;;;14.77;2.97;;;7.40;99.90;;;;;;5027326;28;20200;-80
2022/01/09 12:30:49;;;;;;;9.00;2.67;;;7.40;99.90;;;;;;5030262;28;20221;-80
2022/01/09 12:33:50;;;;;;;11.13;2.57;;;7.50;99.90;;;;;;5026999;28;20295;-80
2022/01/09 12:36:32;;;;;;;11.30;2.40;;;7.60;99.90;;;;;;5035198;28;20218;-80
2022/01/09 12:39:05;;;;;;;13.00;2.67;;;7.70;99.90;;;;;;5009058;28;20258;-79
2022/01/09 12:41:42;;;;;;;14.27;2.77;;;7.80;99.90;;;;;;5024195;28;20193;-80
2022/01/09 12:44:10;;;;;;;9.40;2.50;;;7.60;99.90;;;;;;5021681;28;20231;-79
2022/01/09 12:46:44;;;;;;;14.10;3.00;;;7.70;99.90;;;;;;5023520;28;20200;-79
2022/01/09 12:49:16;;;;;;;10.20;2.40;;;7.70;99.90;;;;;;5022167;28;20246;-78
2022/01/09 12:52:12;;;;;;;10.63;3.00;;;7.80;99.90;;;;;;5027213;28;20227;-81
2022/01/09 12:55:04;;;;;;;7.70;2.60;;;7.60;99.90;;;;;;5035033;28;20208;-80
2022/01/09 12:57:56;;;;;;;12.90;2.50;;;7.60;99.90;;;;;;5035168;28;20210;-80
2022/01/09 13:00:27;;;;;;;9.63;2.50;;;7.60;99.90;;;;;;5032752;28;20275;-80
2022/01/09 13:03:03;;;;;;;11.07;3.10;;;7.50;99.90;;;;;;5036230;28;20204;-79
2022/01/09 13:05:43;;;;;;;17.73;3.33;;;7.60;99.90;;;;;;5037659;28;20191;-79
2022/01/09 13:08:20;;;;;;;14.30;3.00;;;7.90;99.90;;;;;;5035665;28;20239;-81
2022/01/09 13:10:57;;;;;;;8.50;2.10;;;7.80;99.90;;;;;;5036174;28;20675;-80
2022/01/09 13:13:27;;;;;;;12.73;2.67;;;7.80;99.90;;;;;;5032615;28;20214;-80
2022/01/09 13:16:09;;;;;;;16.90;3.10;;;8.00;99.90;;;;;;5036791;28;20200;-81
2022/01/09 13:19:04;;;;;;;18.67;2.87;;;8.00;99.90;;;;;;5033977;28;20199;-80
2022/01/09 13:21:50;;;;;;;9.20;2.10;;;8.10;99.90;;;;;;5029490;28;20203;-79
2022/01/09 13:24:19;;;;;;;9.40;2.75;;;8.00;99.90;;;;;;5033035;28;20420;-79
2022/01/09 13:26:56;;;;;;;6.50;1.77;;;7.80;99.90;;;;;;5026000;28;20548;-79
2022/01/09 13:29:28;;;;;;;8.30;1.80;;;7.60;99.90;;;;;;5022286;28;20294;-79
2022/01/09 13:31:59;;;;;;;9.10;2.50;;;8.00;99.90;;;;;;5020642;28;20258;-79
2022/01/09 13:34:37;;;;;;;18.43;3.97;;;8.10;99.90;;;;;;5002065;28;20214;-80
2022/01/09 13:37:19;;;;;;;10.70;3.43;;;8.20;99.90;;;;;;5018424;28;20208;-79
2022/01/09 13:39:53;;;;;;;15.73;3.20;;;8.10;99.90;;;;;;5015937;28;20568;-79
2022/01/09 13:42:31;;;;;;;10.97;2.97;;;8.20;99.90;;;;;;5017709;28;20203;-79
2022/01/09 13:45:11;;;;;;;12.27;3.10;;;8.20;99.90;;;;;;5017218;28;20206;-81
2022/01/09 13:47:59;;;;;;;10.43;2.80;;;8.10;99.90;;;;;;5026539;28;20706;-80
2022/01/09 13:50:52;;;;;;;11.70;3.00;;;8.10;99.90;;;;;;5037616;28;20176;-79
2022/01/09 13:54:07;;;;;;;12.63;3.10;;;7.90;99.90;;;;;;5038118;28;20283;-80
2022/01/09 13:56:45;;;;;;;16.37;3.10;;;7.80;99.90;;;;;;5038024;28;20200;-81
2022/01/09 13:59:24;;;;;;;15.93;3.27;;;7.70;99.90;;;;;;5038725;28;20231;-80
2022/01/09 14:05:18;;;;;;;9.20;3.03;;;7.80;99.90;;;;;;5037320;28;20212;-81
2022/01/09 14:07:54;;;;;;;11.83;3.23;;;7.80;99.90;;;;;;5038482;28;20183;-79
2022/01/09 14:10:52;;;;;;;13.33;3.03;;;7.90;99.90;;;;;;5037576;28;20198;-80
2022/01/09 14:13:46;;;;;;;16.50;3.47;;;7.80;99.90;;;;;;5038380;28;20220;-79
2022/01/09 14:19:35;;;;;;;16.10;3.50;;;7.60;99.90;;;;;;5035476;28;20199;-79
2022/01/09 14:22:21;;;;;;;15.13;3.07;;;7.60;99.90;;;;;;5038494;28;20207;-80
2022/01/09 14:28:10;;;;;;;16.63;4.17;;;7.50;99.90;;;;;;5038839;28;20207;-78
2022/01/09 14:30:55;;;;;;;15.23;4.00;;;7.40;99.90;;;;;;5181477;23;20229;-80
2022/01/09 14:33:54;;;;;;;13.07;3.97;;;7.30;99.90;;;;;;5057898;28;20219;-79
2022/01/09 14:36:48;;;;;;;12.10;4.67;;;7.30;99.90;;;;;;5055396;28;20227;-79
2022/01/09 14:42:07;;;;;;;14.93;4.70;;;7.20;99.90;;;;;;5057751;28;20262;-80
2022/01/09 14:44:59;;;;;;;11.90;4.13;;;7.20;99.90;;;;;;5055252;28;20194;-80
2022/01/09 14:48:11;;;;;;;14.33;3.87;;;7.20;99.90;;;;;;5054875;28;20238;-80
2022/01/09 14:51:03;;;;;;;18.83;3.97;;;7.20;99.90;;;;;;5054032;28;20191;-79
2022/01/09 14:56:30;;;;;;;9.33;3.33;;;7.30;99.90;;;;;;5054727;28;20267;-79